sensor_id;sensor_type;location;lat;lon;timestamp;temperature;humidity
51733;DHT22;39139;53.144;6.244;2023-03-07T00:00:58;3.60;99.90
51733;DHT22;39139;53.144;6.244;2023-03-07T00:03:24;3.60;99.90
51733;DHT22;39139;53.144;6.244;2023-03-07T00:06:05;3.60;99.90
51733;DHT22;39139;53.144;6.244;2023-03-07T00:08:32;3.60;99.90
51733;DHT22;39139;53.144;6.244;2023-03-07T00:11:02;3.60;99.90
51733;DHT22;39139;53.144;6.244;2023-03-07T00:13:29;3.60;99.90
51733;DHT22;39139;53.144;6.244;2023-03-07T00:16:00;3.70;99.90
51733;DHT22;39139;53.144;6.244;2023-03-07T00:18:26;3.60;99.90
51733;DHT22;39139;53.144;6.244;2023-03-07T00:21:07;4.10;99.90
51733;DHT22;39139;53.144;6.244;2023-03-07T00:23:34;3.60;99.90
51733;DHT22;39139;53.144;6.244;2023-03-07T00:26:02;3.70;99.90
51733;DHT22;39139;53.144;6.244;2023-03-07T00:28:28;3.70;99.90
51733;DHT22;39139;53.144;6.244;2023-03-07T00:31:00;3.60;99.90
51733;DHT22;39139;53.144;6.244;2023-03-07T00:33:27;3.70;99.90
51733;DHT22;39139;53.144;6.244;2023-03-07T00:35:54;3.70;99.90
51733;DHT22;39139;53.144;6.244;2023-03-07T00:38:21;3.70;99.90
51733;DHT22;39139;53.144;6.244;2023-03-07T00:40:46;3.70;99.90
51733;DHT22;39139;53.144;6.244;2023-03-07T00:43:12;3.70;99.90
51733;DHT22;39139;53.144;6.244;2023-03-07T00:45:37;3.80;99.90
51733;DHT22;39139;53.144;6.244;2023-03-07T00:48:03;3.70;99.90
51733;DHT22;39139;53.144;6.244;2023-03-07T00:50:29;3.70;99.90
51733;DHT22;39139;53.144;6.244;2023-03-07T00:52:54;3.70;99.90
51733;DHT22;39139;53.144;6.244;2023-03-07T00:55:20;3.80;99.90
51733;DHT22;39139;53.144;6.244;2023-03-07T00:57:45;3.80;99.90
51733;DHT22;39139;53.144;6.244;2023-03-07T01:00:11;3.80;99.90
51733;DHT22;39139;53.144;6.244;2023-03-07T01:02:37;3.80;99.90
51733;DHT22;39139;53.144;6.244;2023-03-07T01:05:03;3.70;99.90
51733;DHT22;39139;53.144;6.244;2023-03-07T01:07:29;3.70;99.90
51733;DHT22;39139;53.144;6.244;2023-03-07T01:09:54;3.60;99.90
51733;DHT22;39139;53.144;6.244;2023-03-07T01:12:20;3.70;99.90
51733;DHT22;39139;53.144;6.244;2023-03-07T01:14:49;3.70;99.90
51733;DHT22;39139;53.144;6.244;2023-03-07T01:17:15;3.70;99.90
51733;DHT22;39139;53.144;6.244;2023-03-07T01:19:40;4.10;99.90
51733;DHT22;39139;53.144;6.244;2023-03-07T01:22:06;3.70;99.90
51733;DHT22;39139;53.144;6.244;2023-03-07T01:24:31;3.70;99.90
51733;DHT22;39139;53.144;6.244;2023-03-07T01:26:57;3.70;99.90
51733;DHT22;39139;53.144;6.244;2023-03-07T01:29:23;3.60;99.90
51733;DHT22;39139;53.144;6.244;2023-03-07T01:31:48;3.70;99.90
51733;DHT22;39139;53.144;6.244;2023-03-07T01:34:14;3.60;99.90
51733;DHT22;39139;53.144;6.244;2023-03-07T01:36:39;3.60;99.90
51733;DHT22;39139;53.144;6.244;2023-03-07T01:39:13;3.60;99.90
51733;DHT22;39139;53.144;6.244;2023-03-07T01:41:40;3.60;99.90
51733;DHT22;39139;53.144;6.244;2023-03-07T01:44:20;3.50;99.90
51733;DHT22;39139;53.144;6.244;2023-03-07T01:46:51;3.50;99.90
51733;DHT22;39139;53.144;6.244;2023-03-07T01:49:36;3.50;99.90
51733;DHT22;39139;53.144;6.244;2023-03-07T01:54:33;3.40;99.90
51733;DHT22;39139;53.144;6.244;2023-03-07T01:57:01;3.40;99.90
51733;DHT22;39139;53.144;6.244;2023-03-07T01:59:34;3.30;99.90
51733;DHT22;39139;53.144;6.244;2023-03-07T02:02:10;3.40;99.90
51733;DHT22;39139;53.144;6.244;2023-03-07T02:04:45;3.30;99.90
51733;DHT22;39139;53.144;6.244;2023-03-07T02:07:15;3.30;99.90
51733;DHT22;39139;53.144;6.244;2023-03-07T02:09:42;3.30;99.90
51733;DHT22;39139;53.144;6.244;2023-03-07T02:12:09;3.30;99.90
51733;DHT22;39139;53.144;6.244;2023-03-07T02:14:35;3.20;99.90
51733;DHT22;39139;53.144;6.244;2023-03-07T02:17:01;3.20;99.90
51733;DHT22;39139;53.144;6.244;2023-03-07T02:19:32;3.20;99.90
51733;DHT22;39139;53.144;6.244;2023-03-07T02:22:11;3.20;99.90
51733;DHT22;39139;53.144;6.244;2023-03-07T02:25:00;3.50;99.90
51733;DHT22;39139;53.144;6.244;2023-03-07T02:27:28;3.30;99.90
51733;DHT22;39139;53.144;6.244;2023-03-07T02:29:55;3.30;99.90
51733;DHT22;39139;53.144;6.244;2023-03-07T02:32:21;3.20;99.90
51733;DHT22;39139;53.144;6.244;2023-03-07T02:34:46;3.30;99.90
51733;DHT22;39139;53.144;6.244;2023-03-07T02:37:21;3.30;99.90
51733;DHT22;39139;53.144;6.244;2023-03-07T02:39:48;3.30;99.90
51733;DHT22;39139;53.144;6.244;2023-03-07T02:42:21;3.20;99.90
51733;DHT22;39139;53.144;6.244;2023-03-07T02:44:58;3.20;99.90
51733;DHT22;39139;53.144;6.244;2023-03-07T02:47:23;3.20;99.90
51733;DHT22;39139;53.144;6.244;2023-03-07T02:49:49;3.10;99.90
51733;DHT22;39139;53.144;6.244;2023-03-07T02:52:15;3.00;99.90
51733;DHT22;39139;53.144;6.244;2023-03-07T02:54:41;3.00;99.90
51733;DHT22;39139;53.144;6.244;2023-03-07T02:57:06;3.00;99.90
51733;DHT22;39139;53.144;6.244;2023-03-07T02:59:32;2.90;99.90
51733;DHT22;39139;53.144;6.244;2023-03-07T03:01:57;2.90;99.90
51733;DHT22;39139;53.144;6.244;2023-03-07T03:04:23;2.80;99.90
51733;DHT22;39139;53.144;6.244;2023-03-07T03:06:49;2.90;99.90
51733;DHT22;39139;53.144;6.244;2023-03-07T03:09:15;2.90;99.90
51733;DHT22;39139;53.144;6.244;2023-03-07T03:11:41;2.90;99.90
51733;DHT22;39139;53.144;6.244;2023-03-07T03:14:06;2.90;99.90
51733;DHT22;39139;53.144;6.244;2023-03-07T03:16:32;2.80;99.90
51733;DHT22;39139;53.144;6.244;2023-03-07T03:18:58;2.90;99.90
51733;DHT22;39139;53.144;6.244;2023-03-07T03:21:24;2.90;99.90
51733;DHT22;39139;53.144;6.244;2023-03-07T03:23:50;2.90;99.90
51733;DHT22;39139;53.144;6.244;2023-03-07T03:26:16;2.80;99.90
51733;DHT22;39139;53.144;6.244;2023-03-07T03:28:41;2.80;99.90
51733;DHT22;39139;53.144;6.244;2023-03-07T03:31:10;2.70;99.90
51733;DHT22;39139;53.144;6.244;2023-03-07T03:33:35;2.70;99.90
51733;DHT22;39139;53.144;6.244;2023-03-07T03:36:10;2.80;99.90
51733;DHT22;39139;53.144;6.244;2023-03-07T03:38:36;2.80;99.90
51733;DHT22;39139;53.144;6.244;2023-03-07T03:41:04;2.80;99.90
51733;DHT22;39139;53.144;6.244;2023-03-07T03:43:30;2.70;99.90
51733;DHT22;39139;53.144;6.244;2023-03-07T03:45:56;2.70;99.90
51733;DHT22;39139;53.144;6.244;2023-03-07T03:48:23;2.70;99.90
51733;DHT22;39139;53.144;6.244;2023-03-07T03:50:48;2.70;99.90
51733;DHT22;39139;53.144;6.244;2023-03-07T03:53:14;3.30;99.90
51733;DHT22;39139;53.144;6.244;2023-03-07T03:55:40;2.80;99.90
51733;DHT22;39139;53.144;6.244;2023-03-07T03:58:05;2.70;99.90
51733;DHT22;39139;53.144;6.244;2023-03-07T04:00:31;1.40;99.90
51733;DHT22;39139;53.144;6.244;2023-03-07T04:02:57;2.70;99.90
51733;DHT22;39139;53.144;6.244;2023-03-07T04:05:22;2.80;99.90
51733;DHT22;39139;53.144;6.244;2023-03-07T04:07:48;2.80;99.90
51733;DHT22;39139;53.144;6.244;2023-03-07T04:10:14;2.70;99.90
51733;DHT22;39139;53.144;6.244;2023-03-07T04:12:40;2.70;99.90
51733;DHT22;39139;53.144;6.244;2023-03-07T04:15:06;2.70;99.90
51733;DHT22;39139;53.144;6.244;2023-03-07T04:17:32;2.70;99.90
51733;DHT22;39139;53.144;6.244;2023-03-07T04:19:58;2.80;99.90
51733;DHT22;39139;53.144;6.244;2023-03-07T04:22:24;2.80;99.90
51733;DHT22;39139;53.144;6.244;2023-03-07T04:24:49;2.80;99.90
51733;DHT22;39139;53.144;6.244;2023-03-07T04:27:15;2.70;99.90
51733;DHT22;39139;53.144;6.244;2023-03-07T04:29:42;2.80;99.90
51733;DHT22;39139;53.144;6.244;2023-03-07T04:32:07;2.80;99.90
51733;DHT22;39139;53.144;6.244;2023-03-07T04:34:33;2.80;99.90
51733;DHT22;39139;53.144;6.244;2023-03-07T04:36:59;2.80;99.90
51733;DHT22;39139;53.144;6.244;2023-03-07T04:39:24;2.80;99.90
51733;DHT22;39139;53.144;6.244;2023-03-07T04:41:50;2.90;99.90
51733;DHT22;39139;53.144;6.244;2023-03-07T04:44:16;2.90;99.90
51733;DHT22;39139;53.144;6.244;2023-03-07T04:46:41;3.00;99.90
51733;DHT22;39139;53.144;6.244;2023-03-07T04:49:07;2.90;99.90
51733;DHT22;39139;53.144;6.244;2023-03-07T04:51:33;2.90;99.90
51733;DHT22;39139;53.144;6.244;2023-03-07T04:53:58;2.90;99.90
51733;DHT22;39139;53.144;6.244;2023-03-07T04:56:24;2.90;99.90
51733;DHT22;39139;53.144;6.244;2023-03-07T04:58:50;2.90;99.90
51733;DHT22;39139;53.144;6.244;2023-03-07T05:01:16;2.90;99.90
51733;DHT22;39139;53.144;6.244;2023-03-07T05:03:42;2.90;99.90
51733;DHT22;39139;53.144;6.244;2023-03-07T05:06:12;3.00;99.90
51733;DHT22;39139;53.144;6.244;2023-03-07T05:08:38;2.90;99.90
51733;DHT22;39139;53.144;6.244;2023-03-07T05:11:03;2.90;99.90
51733;DHT22;39139;53.144;6.244;2023-03-07T05:13:29;2.90;99.90
51733;DHT22;39139;53.144;6.244;2023-03-07T05:15:56;3.00;99.90
51733;DHT22;39139;53.144;6.244;2023-03-07T05:18:22;3.10;99.90
51733;DHT22;39139;53.144;6.244;2023-03-07T05:20:48;3.10;99.90
51733;DHT22;39139;53.144;6.244;2023-03-07T05:23:15;3.00;99.90
51733;DHT22;39139;53.144;6.244;2023-03-07T05:25:41;3.00;99.90
51733;DHT22;39139;53.144;6.244;2023-03-07T05:28:06;3.00;99.90
51733;DHT22;39139;53.144;6.244;2023-03-07T05:30:32;3.10;99.90
51733;DHT22;39139;53.144;6.244;2023-03-07T05:32:58;3.20;99.90
51733;DHT22;39139;53.144;6.244;2023-03-07T05:35:24;3.10;99.90
51733;DHT22;39139;53.144;6.244;2023-03-07T05:37:50;3.00;99.90
51733;DHT22;39139;53.144;6.244;2023-03-07T05:40:17;3.10;99.90
51733;DHT22;39139;53.144;6.244;2023-03-07T05:42:42;3.00;99.90
51733;DHT22;39139;53.144;6.244;2023-03-07T05:45:09;3.00;99.90
51733;DHT22;39139;53.144;6.244;2023-03-07T05:47:35;2.90;99.90
51733;DHT22;39139;53.144;6.244;2023-03-07T05:50:01;3.20;99.90
51733;DHT22;39139;53.144;6.244;2023-03-07T05:52:27;2.90;99.90
51733;DHT22;39139;53.144;6.244;2023-03-07T05:54:53;2.80;99.90
51733;DHT22;39139;53.144;6.244;2023-03-07T05:57:20;2.80;99.90
51733;DHT22;39139;53.144;6.244;2023-03-07T05:59:46;2.80;99.90
51733;DHT22;39139;53.144;6.244;2023-03-07T06:02:12;2.90;99.90
51733;DHT22;39139;53.144;6.244;2023-03-07T06:04:37;2.90;99.90
51733;DHT22;39139;53.144;6.244;2023-03-07T06:07:03;2.90;99.90
51733;DHT22;39139;53.144;6.244;2023-03-07T06:09:29;2.90;99.90
51733;DHT22;39139;53.144;6.244;2023-03-07T06:11:55;2.80;99.90
51733;DHT22;39139;53.144;6.244;2023-03-07T06:14:20;3.30;99.90
51733;DHT22;39139;53.144;6.244;2023-03-07T06:16:46;2.90;99.90
51733;DHT22;39139;53.144;6.244;2023-03-07T06:19:12;3.10;99.90
51733;DHT22;39139;53.144;6.244;2023-03-07T06:21:37;2.90;99.90
51733;DHT22;39139;53.144;6.244;2023-03-07T06:24:04;2.90;99.90
51733;DHT22;39139;53.144;6.244;2023-03-07T06:26:30;2.90;99.90
51733;DHT22;39139;53.144;6.244;2023-03-07T06:28:55;2.90;99.90
51733;DHT22;39139;53.144;6.244;2023-03-07T06:31:21;2.90;99.90
51733;DHT22;39139;53.144;6.244;2023-03-07T06:33:47;3.20;99.90
51733;DHT22;39139;53.144;6.244;2023-03-07T06:36:15;2.90;99.90
51733;DHT22;39139;53.144;6.244;2023-03-07T06:38:41;2.90;99.90
51733;DHT22;39139;53.144;6.244;2023-03-07T06:41:07;2.90;99.90
51733;DHT22;39139;53.144;6.244;2023-03-07T06:43:33;2.70;99.90
51733;DHT22;39139;53.144;6.244;2023-03-07T06:45:59;2.70;99.90
51733;DHT22;39139;53.144;6.244;2023-03-07T06:48:25;2.70;99.90
51733;DHT22;39139;53.144;6.244;2023-03-07T06:50:50;2.70;99.90
51733;DHT22;39139;53.144;6.244;2023-03-07T06:53:16;2.60;99.90
51733;DHT22;39139;53.144;6.244;2023-03-07T06:55:42;2.50;99.90
51733;DHT22;39139;53.144;6.244;2023-03-07T06:58:08;2.40;99.90
51733;DHT22;39139;53.144;6.244;2023-03-07T07:00:33;2.40;99.90
51733;DHT22;39139;53.144;6.244;2023-03-07T07:02:59;2.40;99.90
51733;DHT22;39139;53.144;6.244;2023-03-07T07:05:25;2.40;99.90
51733;DHT22;39139;53.144;6.244;2023-03-07T07:07:50;2.40;99.90
51733;DHT22;39139;53.144;6.244;2023-03-07T07:10:16;2.40;99.90
51733;DHT22;39139;53.144;6.244;2023-03-07T07:12:42;2.40;99.90
51733;DHT22;39139;53.144;6.244;2023-03-07T07:15:08;2.40;99.90
51733;DHT22;39139;53.144;6.244;2023-03-07T07:17:34;2.40;99.90
51733;DHT22;39139;53.144;6.244;2023-03-07T07:20:01;2.50;99.90
51733;DHT22;39139;53.144;6.244;2023-03-07T07:22:29;2.50;99.90
51733;DHT22;39139;53.144;6.244;2023-03-07T07:24:55;2.50;99.90
51733;DHT22;39139;53.144;6.244;2023-03-07T07:27:20;2.50;99.90
51733;DHT22;39139;53.144;6.244;2023-03-07T07:29:46;2.50;99.90
51733;DHT22;39139;53.144;6.244;2023-03-07T07:32:12;2.50;99.90
51733;DHT22;39139;53.144;6.244;2023-03-07T07:34:37;2.50;99.90
51733;DHT22;39139;53.144;6.244;2023-03-07T07:37:03;2.50;99.90
51733;DHT22;39139;53.144;6.244;2023-03-07T07:39:29;2.50;99.90
51733;DHT22;39139;53.144;6.244;2023-03-07T07:41:54;2.50;99.90
51733;DHT22;39139;53.144;6.244;2023-03-07T07:44:20;2.50;99.90
51733;DHT22;39139;53.144;6.244;2023-03-07T07:46:45;2.50;99.90
51733;DHT22;39139;53.144;6.244;2023-03-07T07:49:11;2.60;99.90
51733;DHT22;39139;53.144;6.244;2023-03-07T07:51:37;2.60;99.90
51733;DHT22;39139;53.144;6.244;2023-03-07T07:54:05;2.60;99.90
51733;DHT22;39139;53.144;6.244;2023-03-07T07:56:31;2.60;99.90
51733;DHT22;39139;53.144;6.244;2023-03-07T07:58:57;2.60;99.90
51733;DHT22;39139;53.144;6.244;2023-03-07T08:01:23;2.70;99.90
51733;DHT22;39139;53.144;6.244;2023-03-07T08:03:49;2.70;99.90
51733;DHT22;39139;53.144;6.244;2023-03-07T08:06:24;2.70;99.90
51733;DHT22;39139;53.144;6.244;2023-03-07T08:08:50;2.70;99.90
51733;DHT22;39139;53.144;6.244;2023-03-07T08:11:17;2.80;99.90
51733;DHT22;39139;53.144;6.244;2023-03-07T08:13:43;2.80;99.90
51733;DHT22;39139;53.144;6.244;2023-03-07T08:16:11;2.90;99.90
51733;DHT22;39139;53.144;6.244;2023-03-07T08:18:37;3.00;99.90
51733;DHT22;39139;53.144;6.244;2023-03-07T08:21:03;3.00;99.90
51733;DHT22;39139;53.144;6.244;2023-03-07T08:23:29;3.00;99.90
51733;DHT22;39139;53.144;6.244;2023-03-07T08:25:59;3.30;99.90
51733;DHT22;39139;53.144;6.244;2023-03-07T08:28:25;3.20;99.90
51733;DHT22;39139;53.144;6.244;2023-03-07T08:30:51;3.20;99.90
51733;DHT22;39139;53.144;6.244;2023-03-07T08:33:16;3.20;99.90
51733;DHT22;39139;53.144;6.244;2023-03-07T08:35:42;3.00;99.90
51733;DHT22;39139;53.144;6.244;2023-03-07T08:38:07;2.80;99.90
51733;DHT22;39139;53.144;6.244;2023-03-07T08:40:33;2.60;99.90
51733;DHT22;39139;53.144;6.244;2023-03-07T08:42:59;2.50;99.90
51733;DHT22;39139;53.144;6.244;2023-03-07T08:45:24;2.40;99.90
51733;DHT22;39139;53.144;6.244;2023-03-07T08:47:52;2.30;99.90
51733;DHT22;39139;53.144;6.244;2023-03-07T08:50:19;2.30;99.90
51733;DHT22;39139;53.144;6.244;2023-03-07T08:52:45;2.30;99.90
51733;DHT22;39139;53.144;6.244;2023-03-07T08:55:10;2.20;99.90
51733;DHT22;39139;53.144;6.244;2023-03-07T08:57:36;2.10;99.90
51733;DHT22;39139;53.144;6.244;2023-03-07T09:00:02;1.80;99.90
51733;DHT22;39139;53.144;6.244;2023-03-07T09:02:28;1.60;99.90
51733;DHT22;39139;53.144;6.244;2023-03-07T09:04:53;1.50;99.90
51733;DHT22;39139;53.144;6.244;2023-03-07T09:07:19;1.50;99.90
51733;DHT22;39139;53.144;6.244;2023-03-07T09:09:45;1.50;99.90
51733;DHT22;39139;53.144;6.244;2023-03-07T09:12:10;1.40;99.90
51733;DHT22;39139;53.144;6.244;2023-03-07T09:14:36;1.50;99.90
51733;DHT22;39139;53.144;6.244;2023-03-07T09:17:02;1.50;99.90
51733;DHT22;39139;53.144;6.244;2023-03-07T09:19:28;1.60;99.90
51733;DHT22;39139;53.144;6.244;2023-03-07T09:21:54;1.60;99.90
51733;DHT22;39139;53.144;6.244;2023-03-07T09:24:20;1.60;99.90
51733;DHT22;39139;53.144;6.244;2023-03-07T09:26:45;1.60;99.90
51733;DHT22;39139;53.144;6.244;2023-03-07T09:29:11;1.60;99.90
51733;DHT22;39139;53.144;6.244;2023-03-07T09:31:37;1.70;99.90
51733;DHT22;39139;53.144;6.244;2023-03-07T09:34:02;1.80;99.90
51733;DHT22;39139;53.144;6.244;2023-03-07T09:36:29;1.90;99.90
51733;DHT22;39139;53.144;6.244;2023-03-07T09:38:55;2.00;99.90
51733;DHT22;39139;53.144;6.244;2023-03-07T09:41:58;2.10;99.90
51733;DHT22;39139;53.144;6.244;2023-03-07T09:44:44;2.20;99.90
51733;DHT22;39139;53.144;6.244;2023-03-07T09:47:27;2.30;99.90
51733;DHT22;39139;53.144;6.244;2023-03-07T09:49:55;2.40;99.90
51733;DHT22;39139;53.144;6.244;2023-03-07T09:52:26;2.50;99.90
51733;DHT22;39139;53.144;6.244;2023-03-07T09:55:03;2.60;99.90
51733;DHT22;39139;53.144;6.244;2023-03-07T09:57:44;2.70;99.90
51733;DHT22;39139;53.144;6.244;2023-03-07T10:03:03;2.90;99.90
51733;DHT22;39139;53.144;6.244;2023-03-07T10:05:38;3.00;99.90
51733;DHT22;39139;53.144;6.244;2023-03-07T10:08:05;3.60;99.90
51733;DHT22;39139;53.144;6.244;2023-03-07T10:10:39;3.40;99.90
51733;DHT22;39139;53.144;6.244;2023-03-07T10:13:22;3.60;99.90
51733;DHT22;39139;53.144;6.244;2023-03-07T10:15:53;3.80;99.90
51733;DHT22;39139;53.144;6.244;2023-03-07T10:21:20;4.00;99.90
51733;DHT22;39139;53.144;6.244;2023-03-07T10:26:43;4.10;99.90
51733;DHT22;39139;53.144;6.244;2023-03-07T10:29:17;4.20;99.90
51733;DHT22;39139;53.144;6.244;2023-03-07T10:34:44;4.30;99.90
51733;DHT22;39139;53.144;6.244;2023-03-07T10:37:15;4.30;99.90
51733;DHT22;39139;53.144;6.244;2023-03-07T10:39:53;4.30;99.90
51733;DHT22;39139;53.144;6.244;2023-03-07T10:42:34;4.40;99.90
51733;DHT22;39139;53.144;6.244;2023-03-07T10:45:00;4.50;99.90
51733;DHT22;39139;53.144;6.244;2023-03-07T10:47:27;4.60;99.90
51733;DHT22;39139;53.144;6.244;2023-03-07T10:50:21;5.90;99.90
51733;DHT22;39139;53.144;6.244;2023-03-07T10:52:59;4.60;99.90
51733;DHT22;39139;53.144;6.244;2023-03-07T10:55:39;4.70;99.90
51733;DHT22;39139;53.144;6.244;2023-03-07T10:58:13;4.60;99.90
51733;DHT22;39139;53.144;6.244;2023-03-07T11:00:39;4.40;99.90
51733;DHT22;39139;53.144;6.244;2023-03-07T11:03:24;4.30;99.90
51733;DHT22;39139;53.144;6.244;2023-03-07T11:05:50;4.30;99.90
51733;DHT22;39139;53.144;6.244;2023-03-07T11:08:35;4.40;99.90
51733;DHT22;39139;53.144;6.244;2023-03-07T11:11:02;4.50;99.90
51733;DHT22;39139;53.144;6.244;2023-03-07T11:13:29;4.70;99.90
51733;DHT22;39139;53.144;6.244;2023-03-07T11:16:28;4.70;99.90
51733;DHT22;39139;53.144;6.244;2023-03-07T11:18:54;4.70;99.90
51733;DHT22;39139;53.144;6.244;2023-03-07T11:21:31;4.70;99.90
51733;DHT22;39139;53.144;6.244;2023-03-07T11:24:02;4.80;99.90
51733;DHT22;39139;53.144;6.244;2023-03-07T11:26:37;5.20;99.90
51733;DHT22;39139;53.144;6.244;2023-03-07T11:29:07;5.40;99.90
51733;DHT22;39139;53.144;6.244;2023-03-07T11:36:55;6.10;99.90
51733;DHT22;39139;53.144;6.244;2023-03-07T11:39:35;6.30;99.90
51733;DHT22;39139;53.144;6.244;2023-03-07T11:42:15;6.60;99.90
51733;DHT22;39139;53.144;6.244;2023-03-07T11:44:56;6.70;99.90
51733;DHT22;39139;53.144;6.244;2023-03-07T11:47:58;7.00;99.90
51733;DHT22;39139;53.144;6.244;2023-03-07T11:50:31;7.50;99.90
51733;DHT22;39139;53.144;6.244;2023-03-07T11:56:20;8.20;99.90
51733;DHT22;39139;53.144;6.244;2023-03-07T12:02:01;7.70;99.90
51733;DHT22;39139;53.144;6.244;2023-03-07T12:04:40;7.40;99.90
51733;DHT22;39139;53.144;6.244;2023-03-07T12:10:35;6.80;99.90
51733;DHT22;39139;53.144;6.244;2023-03-07T12:13:13;6.60;99.90
51733;DHT22;39139;53.144;6.244;2023-03-07T12:15:50;6.60;99.90
51733;DHT22;39139;53.144;6.244;2023-03-07T12:24:12;8.40;99.90
51733;DHT22;39139;53.144;6.244;2023-03-07T12:29:33;8.00;99.90
51733;DHT22;39139;53.144;6.244;2023-03-07T12:32:03;7.60;99.90
51733;DHT22;39139;53.144;6.244;2023-03-07T12:34:45;7.30;99.90
51733;DHT22;39139;53.144;6.244;2023-03-07T12:37:26;6.90;99.90
51733;DHT22;39139;53.144;6.244;2023-03-07T12:40:07;6.60;99.90
51733;DHT22;39139;53.144;6.244;2023-03-07T12:42:43;6.50;99.90
51733;DHT22;39139;53.144;6.244;2023-03-07T12:45:23;6.30;99.90
51733;DHT22;39139;53.144;6.244;2023-03-07T12:53:32;6.30;99.90
51733;DHT22;39139;53.144;6.244;2023-03-07T12:56:23;6.90;99.90
51733;DHT22;39139;53.144;6.244;2023-03-07T12:59:08;7.50;99.90
51733;DHT22;39139;53.144;6.244;2023-03-07T13:01:45;7.90;99.90
51733;DHT22;39139;53.144;6.244;2023-03-07T13:06:48;7.60;99.90
51733;DHT22;39139;53.144;6.244;2023-03-07T13:09:22;7.20;99.90
51733;DHT22;39139;53.144;6.244;2023-03-07T13:14:41;7.10;99.90
51733;DHT22;39139;53.144;6.244;2023-03-07T13:30:20;5.90;99.90
51733;DHT22;39139;53.144;6.244;2023-03-07T13:38:01;5.00;99.90
51733;DHT22;39139;53.144;6.244;2023-03-07T13:40:50;5.00;99.90
51733;DHT22;39139;53.144;6.244;2023-03-07T13:46:00;5.30;99.90
51733;DHT22;39139;53.144;6.244;2023-03-07T13:58:57;6.80;99.90
51733;DHT22;39139;53.144;6.244;2023-03-07T14:04:15;7.00;99.90
51733;DHT22;39139;53.144;6.244;2023-03-07T14:06:49;7.10;99.90
51733;DHT22;39139;53.144;6.244;2023-03-07T14:09:38;7.20;99.90
51733;DHT22;39139;53.144;6.244;2023-03-07T14:15:51;7.60;99.90
51733;DHT22;39139;53.144;6.244;2023-03-07T14:18:43;7.80;99.90
51733;DHT22;39139;53.144;6.244;2023-03-07T14:27:12;7.30;99.90
51733;DHT22;39139;53.144;6.244;2023-03-07T14:29:55;7.00;99.90
51733;DHT22;39139;53.144;6.244;2023-03-07T14:32:29;6.70;99.90
51733;DHT22;39139;53.144;6.244;2023-03-07T14:34:56;6.50;99.90
51733;DHT22;39139;53.144;6.244;2023-03-07T14:37:27;6.50;99.90
51733;DHT22;39139;53.144;6.244;2023-03-07T14:40:27;6.40;99.90
51733;DHT22;39139;53.144;6.244;2023-03-07T14:43:25;6.40;99.90
51733;DHT22;39139;53.144;6.244;2023-03-07T14:46:00;6.40;99.90
51733;DHT22;39139;53.144;6.244;2023-03-07T14:48:44;6.40;99.90
51733;DHT22;39139;53.144;6.244;2023-03-07T14:51:23;6.30;99.90
51733;DHT22;39139;53.144;6.244;2023-03-07T14:53:50;6.20;99.90
51733;DHT22;39139;53.144;6.244;2023-03-07T14:56:28;6.10;99.90
51733;DHT22;39139;53.144;6.244;2023-03-07T14:59:02;5.90;99.90
51733;DHT22;39139;53.144;6.244;2023-03-07T15:01:31;5.90;99.90
51733;DHT22;39139;53.144;6.244;2023-03-07T15:03:59;5.60;99.90
51733;DHT22;39139;53.144;6.244;2023-03-07T15:06:27;5.40;99.90
51733;DHT22;39139;53.144;6.244;2023-03-07T15:08:57;5.10;99.90
51733;DHT22;39139;53.144;6.244;2023-03-07T15:11:36;4.90;99.90
51733;DHT22;39139;53.144;6.244;2023-03-07T15:14:21;4.80;99.90
51733;DHT22;39139;53.144;6.244;2023-03-07T15:16:52;4.70;99.90
51733;DHT22;39139;53.144;6.244;2023-03-07T15:22:03;4.60;99.90
51733;DHT22;39139;53.144;6.244;2023-03-07T15:26:58;4.60;99.90
51733;DHT22;39139;53.144;6.244;2023-03-07T15:29:27;4.60;99.90
51733;DHT22;39139;53.144;6.244;2023-03-07T15:32:00;4.50;99.90
51733;DHT22;39139;53.144;6.244;2023-03-07T15:34:36;4.50;99.90
51733;DHT22;39139;53.144;6.244;2023-03-07T15:37:21;4.40;99.90
51733;DHT22;39139;53.144;6.244;2023-03-07T15:45:35;4.60;99.90
51733;DHT22;39139;53.144;6.244;2023-03-07T15:50:35;4.70;99.90
51733;DHT22;39139;53.144;6.244;2023-03-07T15:53:26;4.80;99.90
51733;DHT22;39139;53.144;6.244;2023-03-07T15:55:59;4.50;99.90
51733;DHT22;39139;53.144;6.244;2023-03-07T15:58:25;4.50;99.90
51733;DHT22;39139;53.144;6.244;2023-03-07T16:01:19;4.60;99.90
51733;DHT22;39139;53.144;6.244;2023-03-07T16:03:56;4.60;99.90
51733;DHT22;39139;53.144;6.244;2023-03-07T16:06:41;4.60;99.90
51733;DHT22;39139;53.144;6.244;2023-03-07T16:09:12;5.70;99.90
51733;DHT22;39139;53.144;6.244;2023-03-07T16:11:40;4.50;99.90
51733;DHT22;39139;53.144;6.244;2023-03-07T16:14:26;4.30;99.90
51733;DHT22;39139;53.144;6.244;2023-03-07T16:16:54;4.60;99.90
51733;DHT22;39139;53.144;6.244;2023-03-07T16:19:20;4.00;99.90
51733;DHT22;39139;53.144;6.244;2023-03-07T16:21:46;3.80;99.90
51733;DHT22;39139;53.144;6.244;2023-03-07T16:24:11;3.70;99.90
51733;DHT22;39139;53.144;6.244;2023-03-07T16:26:37;3.50;99.90
51733;DHT22;39139;53.144;6.244;2023-03-07T16:29:04;3.30;99.90
51733;DHT22;39139;53.144;6.244;2023-03-07T16:31:30;3.20;99.90
51733;DHT22;39139;53.144;6.244;2023-03-07T16:33:55;3.10;99.90
51733;DHT22;39139;53.144;6.244;2023-03-07T16:36:22;3.00;99.90
51733;DHT22;39139;53.144;6.244;2023-03-07T16:38:47;2.90;99.90
51733;DHT22;39139;53.144;6.244;2023-03-07T16:41:18;2.90;99.90
51733;DHT22;39139;53.144;6.244;2023-03-07T16:43:46;2.90;99.90
51733;DHT22;39139;53.144;6.244;2023-03-07T16:46:17;2.80;99.90
51733;DHT22;39139;53.144;6.244;2023-03-07T16:48:43;2.70;99.90
51733;DHT22;39139;53.144;6.244;2023-03-07T16:51:18;2.60;99.90
51733;DHT22;39139;53.144;6.244;2023-03-07T16:53:45;2.50;99.90
51733;DHT22;39139;53.144;6.244;2023-03-07T16:56:35;2.40;99.90
51733;DHT22;39139;53.144;6.244;2023-03-07T16:59:02;2.30;99.90
51733;DHT22;39139;53.144;6.244;2023-03-07T17:01:28;2.20;99.90
51733;DHT22;39139;53.144;6.244;2023-03-07T17:03:54;2.10;99.90
51733;DHT22;39139;53.144;6.244;2023-03-07T17:06:21;0.50;99.90
51733;DHT22;39139;53.144;6.244;2023-03-07T17:08:46;2.00;99.90
51733;DHT22;39139;53.144;6.244;2023-03-07T17:11:25;1.90;99.90
51733;DHT22;39139;53.144;6.244;2023-03-07T17:13:56;1.80;99.90
51733;DHT22;39139;53.144;6.244;2023-03-07T17:16:23;2.50;99.90
51733;DHT22;39139;53.144;6.244;2023-03-07T17:18:50;1.70;99.90
51733;DHT22;39139;53.144;6.244;2023-03-07T17:21:18;1.60;99.90
51733;DHT22;39139;53.144;6.244;2023-03-07T17:23:44;1.60;99.90
51733;DHT22;39139;53.144;6.244;2023-03-07T17:28:44;1.80;99.90
51733;DHT22;39139;53.144;6.244;2023-03-07T17:31:10;2.60;99.90
51733;DHT22;39139;53.144;6.244;2023-03-07T17:33:36;1.40;99.90
51733;DHT22;39139;53.144;6.244;2023-03-07T17:36:01;1.40;99.90
51733;DHT22;39139;53.144;6.244;2023-03-07T17:38:27;1.40;99.90
51733;DHT22;39139;53.144;6.244;2023-03-07T17:40:54;1.70;99.90
51733;DHT22;39139;53.144;6.244;2023-03-07T17:43:20;1.40;99.90
51733;DHT22;39139;53.144;6.244;2023-03-07T17:45:46;1.30;99.90
51733;DHT22;39139;53.144;6.244;2023-03-07T17:48:11;1.30;99.90